sensor_id;sensor_type;location;lat;lon;timestamp;pressure;altitude;pressure_sealevel;temperature;humidity
35878;BME280;21982;49.804;24.072;2023-03-15T00:00:47;95749.25;;;12.88;34.12
35878;BME280;21982;49.804;24.072;2023-03-15T00:03:13;95709.63;;;12.53;34.50
35878;BME280;21982;49.804;24.072;2023-03-15T00:05:44;95806.03;;;12.99;34.65
35878;BME280;21982;49.804;24.072;2023-03-15T00:08:10;95764.75;;;12.63;34.88
35878;BME280;21982;49.804;24.072;2023-03-15T00:10:42;95688.50;;;12.01;34.86
35878;BME280;21982;49.804;24.072;2023-03-15T00:13:08;95809.66;;;12.64;35.21
35878;BME280;21982;49.804;24.072;2023-03-15T00:15:35;95823.56;;;12.55;35.48
35878;BME280;21982;49.804;24.072;2023-03-15T00:18:00;95777.19;;;12.05;35.57
35878;BME280;21982;49.804;24.072;2023-03-15T00:20:29;95638.06;;;11.21;35.89
35878;BME280;21982;49.804;24.072;2023-03-15T00:22:55;95742.88;;;11.52;35.89
35878;BME280;21982;49.804;24.072;2023-03-15T00:25:21;95818.56;;;12.18;36.25
35878;BME280;21982;49.804;24.072;2023-03-15T00:27:47;95816.63;;;12.14;36.36
35878;BME280;21982;49.804;24.072;2023-03-15T00:30:12;95688.06;;;11.29;36.46
35878;BME280;21982;49.804;24.072;2023-03-15T00:32:38;95756.13;;;11.75;36.57
35878;BME280;21982;49.804;24.072;2023-03-15T00:35:03;95770.66;;;11.85;36.72
35878;BME280;21982;49.804;24.072;2023-03-15T00:37:30;95807.72;;;12.20;36.61
35878;BME280;21982;49.804;24.072;2023-03-15T00:39:56;95712.91;;;11.63;36.48
35878;BME280;21982;49.804;24.072;2023-03-15T00:42:21;95735.72;;;11.76;36.25
35878;BME280;21982;49.804;24.072;2023-03-15T00:44:52;95706.44;;;11.71;36.55
35878;BME280;21982;49.804;24.072;2023-03-15T00:47:18;95808.97;;;12.40;36.27
35878;BME280;21982;49.804;24.072;2023-03-15T00:49:43;95778.50;;;12.31;36.12
35878;BME280;21982;49.804;24.072;2023-03-15T00:52:10;95801.97;;;12.51;36.41
35878;BME280;21982;49.804;24.072;2023-03-15T00:54:36;95801.50;;;12.54;36.32
35878;BME280;21982;49.804;24.072;2023-03-15T00:57:02;95766.63;;;12.34;36.09
35878;BME280;21982;49.804;24.072;2023-03-15T00:59:29;95809.22;;;12.56;36.33
35878;BME280;21982;49.804;24.072;2023-03-15T01:02:02;95760.41;;;12.28;36.22
35878;BME280;21982;49.804;24.072;2023-03-15T01:04:28;95810.50;;;12.53;36.16
35878;BME280;21982;49.804;24.072;2023-03-15T01:06:53;95805.66;;;12.50;36.28
35878;BME280;21982;49.804;24.072;2023-03-15T01:09:19;95606.28;;;11.21;36.39
35878;BME280;21982;49.804;24.072;2023-03-15T01:11:44;95796.16;;;12.37;36.29
35878;BME280;21982;49.804;24.072;2023-03-15T01:14:10;95711.50;;;11.84;36.30
35878;BME280;21982;49.804;24.072;2023-03-15T01:16:35;95612.13;;;11.35;36.51
35878;BME280;21982;49.804;24.072;2023-03-15T01:19:00;95713.13;;;11.85;36.39
35878;BME280;21982;49.804;24.072;2023-03-15T01:21:26;95741.56;;;12.01;36.40
35878;BME280;21982;49.804;24.072;2023-03-15T01:23:52;95817.84;;;12.46;36.49
35878;BME280;21982;49.804;24.072;2023-03-15T01:26:18;95827.31;;;12.42;36.68
35878;BME280;21982;49.804;24.072;2023-03-15T01:28:44;95575.09;;;10.77;36.63
35878;BME280;21982;49.804;24.072;2023-03-15T01:31:24;95826.63;;;12.35;36.67
35878;BME280;21982;49.804;24.072;2023-03-15T01:33:50;95808.91;;;12.12;36.59
35878;BME280;21982;49.804;24.072;2023-03-15T01:36:16;95829.41;;;12.28;36.94
35878;BME280;21982;49.804;24.072;2023-03-15T01:38:43;95809.47;;;12.14;36.90
35878;BME280;21982;49.804;24.072;2023-03-15T01:41:11;95813.25;;;12.18;36.91
35878;BME280;21982;49.804;24.072;2023-03-15T01:43:37;95776.19;;;11.95;36.82
35878;BME280;21982;49.804;24.072;2023-03-15T01:46:25;95836.41;;;12.46;36.45
35878;BME280;21982;49.804;24.072;2023-03-15T01:49:07;95836.50;;;12.51;36.53
35878;BME280;21982;49.804;24.072;2023-03-15T01:51:56;95837.63;;;12.55;36.37
35878;BME280;21982;49.804;24.072;2023-03-15T01:54:30;95795.72;;;12.29;36.57
35878;BME280;21982;49.804;24.072;2023-03-15T01:57:15;95825.34;;;12.37;36.74
35878;BME280;21982;49.804;24.072;2023-03-15T01:59:49;95831.75;;;12.53;36.42
35878;BME280;21982;49.804;24.072;2023-03-15T02:02:17;95810.47;;;12.36;36.46
35878;BME280;21982;49.804;24.072;2023-03-15T02:07:20;95818.31;;;12.43;36.52
35878;BME280;21982;49.804;24.072;2023-03-15T02:12:24;95780.16;;;12.21;36.56
35878;BME280;21982;49.804;24.072;2023-03-15T02:14:50;95831.28;;;12.56;36.59
35878;BME280;21982;49.804;24.072;2023-03-15T02:17:27;95800.09;;;12.35;36.28
35878;BME280;21982;49.804;24.072;2023-03-15T02:20:10;95831.84;;;12.58;36.66
35878;BME280;21982;49.804;24.072;2023-03-15T02:22:55;95832.31;;;12.55;36.57
35878;BME280;21982;49.804;24.072;2023-03-15T02:28:15;95767.69;;;12.21;36.80
35878;BME280;21982;49.804;24.072;2023-03-15T02:30:42;95800.41;;;12.38;36.90
35878;BME280;21982;49.804;24.072;2023-03-15T02:33:17;95845.13;;;12.58;37.01
35878;BME280;21982;49.804;24.072;2023-03-15T02:35:44;95818.31;;;12.43;37.21
35878;BME280;21982;49.804;24.072;2023-03-15T02:38:09;95843.63;;;12.62;37.40
35878;BME280;21982;49.804;24.072;2023-03-15T02:40:35;95840.72;;;12.64;37.39
35878;BME280;21982;49.804;24.072;2023-03-15T02:43:04;95843.25;;;12.70;37.46
35878;BME280;21982;49.804;24.072;2023-03-15T02:45:33;95719.09;;;11.92;37.68
35878;BME280;21982;49.804;24.072;2023-03-15T02:48:01;95817.25;;;12.44;37.80
35878;BME280;21982;49.804;24.072;2023-03-15T02:50:29;95851.22;;;12.70;38.15
35878;BME280;21982;49.804;24.072;2023-03-15T02:52:54;95854.34;;;12.67;38.02
35878;BME280;21982;49.804;24.072;2023-03-15T02:55:20;95857.25;;;12.66;38.38
35878;BME280;21982;49.804;24.072;2023-03-15T02:57:46;95805.28;;;12.30;38.63
35878;BME280;21982;49.804;24.072;2023-03-15T03:00:11;95830.13;;;12.52;38.75
35878;BME280;21982;49.804;24.072;2023-03-15T03:02:40;95705.63;;;11.70;38.58
35878;BME280;21982;49.804;24.072;2023-03-15T03:05:05;95745.97;;;11.96;38.80
35878;BME280;21982;49.804;24.072;2023-03-15T03:07:31;95801.13;;;12.34;39.20
35878;BME280;21982;49.804;24.072;2023-03-15T03:09:56;95659.03;;;11.34;39.63
35878;BME280;21982;49.804;24.072;2023-03-15T03:12:22;95868.91;;;12.65;39.59
35878;BME280;21982;49.804;24.072;2023-03-15T03:14:48;95617.00;;;11.03;39.84
35878;BME280;21982;49.804;24.072;2023-03-15T03:17:14;95838.09;;;12.52;39.76
35878;BME280;21982;49.804;24.072;2023-03-15T03:19:39;95713.81;;;11.69;39.85
35878;BME280;21982;49.804;24.072;2023-03-15T03:22:05;95775.13;;;12.07;40.05
35878;BME280;21982;49.804;24.072;2023-03-15T03:24:30;95860.16;;;12.53;40.04
35878;BME280;21982;49.804;24.072;2023-03-15T03:26:55;95886.22;;;12.67;40.32
35878;BME280;21982;49.804;24.072;2023-03-15T03:29:24;95888.97;;;12.72;40.45
35878;BME280;21982;49.804;24.072;2023-03-15T03:31:49;95828.72;;;12.21;40.26
35878;BME280;21982;49.804;24.072;2023-03-15T03:34:15;95892.44;;;12.73;40.79
35878;BME280;21982;49.804;24.072;2023-03-15T03:36:41;95815.38;;;12.04;40.71
35878;BME280;21982;49.804;24.072;2023-03-15T03:39:08;95875.22;;;12.35;40.94
35878;BME280;21982;49.804;24.072;2023-03-15T03:41:34;95856.06;;;12.22;40.80
35878;BME280;21982;49.804;24.072;2023-03-15T03:43:59;95913.03;;;12.54;41.17
35878;BME280;21982;49.804;24.072;2023-03-15T03:46:24;95879.13;;;12.33;40.95
35878;BME280;21982;49.804;24.072;2023-03-15T03:48:50;95912.38;;;12.47;41.20
35878;BME280;21982;49.804;24.072;2023-03-15T03:51:15;95822.09;;;11.84;41.13
35878;BME280;21982;49.804;24.072;2023-03-15T03:53:43;95872.44;;;12.19;41.44
35878;BME280;21982;49.804;24.072;2023-03-15T03:56:09;95742.66;;;11.30;41.64
35878;BME280;21982;49.804;24.072;2023-03-15T03:58:34;95868.09;;;12.01;41.65
35878;BME280;21982;49.804;24.072;2023-03-15T04:01:03;95905.91;;;12.20;41.71
35878;BME280;21982;49.804;24.072;2023-03-15T04:03:28;95895.41;;;12.13;41.60
35878;BME280;21982;49.804;24.072;2023-03-15T04:05:56;95932.47;;;12.31;41.72
35878;BME280;21982;49.804;24.072;2023-03-15T04:08:23;95837.06;;;11.66;41.75
35878;BME280;21982;49.804;24.072;2023-03-15T04:10:53;95914.34;;;12.17;42.15
35878;BME280;21982;49.804;24.072;2023-03-15T04:13:19;95922.66;;;12.20;42.21
35878;BME280;21982;49.804;24.072;2023-03-15T04:15:45;95923.91;;;12.18;42.43
35878;BME280;21982;49.804;24.072;2023-03-15T04:18:11;95919.75;;;12.22;42.48
35878;BME280;21982;49.804;24.072;2023-03-15T04:20:37;95802.34;;;11.45;42.40
35878;BME280;21982;49.804;24.072;2023-03-15T04:23:02;95920.22;;;12.19;42.39
35878;BME280;21982;49.804;24.072;2023-03-15T04:25:31;95941.00;;;12.22;42.82
35878;BME280;21982;49.804;24.072;2023-03-15T04:27:57;95946.75;;;12.19;42.95
35878;BME280;21982;49.804;24.072;2023-03-15T04:30:28;95947.22;;;12.16;43.10
35878;BME280;21982;49.804;24.072;2023-03-15T04:32:55;95939.16;;;12.11;43.13
35878;BME280;21982;49.804;24.072;2023-03-15T04:35:28;95940.44;;;12.08;43.65
35878;BME280;21982;49.804;24.072;2023-03-15T04:37:54;95852.03;;;11.37;44.20
35878;BME280;21982;49.804;24.072;2023-03-15T04:40:21;95952.66;;;11.97;44.72
35878;BME280;21982;49.804;24.072;2023-03-15T04:42:49;95953.69;;;11.96;45.42
35878;BME280;21982;49.804;24.072;2023-03-15T04:45:16;95950.44;;;11.94;45.78
35878;BME280;21982;49.804;24.072;2023-03-15T04:47:42;95731.72;;;10.50;46.33
35878;BME280;21982;49.804;24.072;2023-03-15T04:50:08;95874.59;;;11.28;46.83
35878;BME280;21982;49.804;24.072;2023-03-15T04:52:34;95955.38;;;11.79;47.21
35878;BME280;21982;49.804;24.072;2023-03-15T04:54:59;95787.13;;;10.75;47.50
35878;BME280;21982;49.804;24.072;2023-03-15T04:57:25;95934.09;;;11.56;47.70
35878;BME280;21982;49.804;24.072;2023-03-15T04:59:50;95863.34;;;11.15;47.79
35878;BME280;21982;49.804;24.072;2023-03-15T05:02:15;95933.59;;;11.35;48.48
35878;BME280;21982;49.804;24.072;2023-03-15T05:04:41;95829.41;;;10.82;48.58
35878;BME280;21982;49.804;24.072;2023-03-15T05:07:08;95853.97;;;10.89;49.03
35878;BME280;21982;49.804;24.072;2023-03-15T05:09:33;95908.31;;;11.21;49.51
35878;BME280;21982;49.804;24.072;2023-03-15T05:12:03;95895.94;;;11.03;49.73
35878;BME280;21982;49.804;24.072;2023-03-15T05:14:28;95978.94;;;11.57;50.16
35878;BME280;21982;49.804;24.072;2023-03-15T05:16:54;95975.69;;;11.55;50.36
35878;BME280;21982;49.804;24.072;2023-03-15T05:19:22;95903.16;;;10.96;50.44
35878;BME280;21982;49.804;24.072;2023-03-15T05:21:48;95970.50;;;11.49;50.84
35878;BME280;21982;49.804;24.072;2023-03-15T05:24:14;95793.88;;;10.29;51.13
35878;BME280;21982;49.804;24.072;2023-03-15T05:26:39;95866.66;;;10.68;51.25
35878;BME280;21982;49.804;24.072;2023-03-15T05:29:05;95897.38;;;10.88;51.70
35878;BME280;21982;49.804;24.072;2023-03-15T05:31:30;95690.44;;;9.53;51.53
35878;BME280;21982;49.804;24.072;2023-03-15T05:34:01;95986.00;;;11.33;51.85
35878;BME280;21982;49.804;24.072;2023-03-15T05:36:28;95953.41;;;11.03;52.18
35878;BME280;21982;49.804;24.072;2023-03-15T05:38:55;95962.97;;;11.04;52.64
35878;BME280;21982;49.804;24.072;2023-03-15T05:41:20;95927.56;;;10.68;52.83
35878;BME280;21982;49.804;24.072;2023-03-15T05:43:45;96003.31;;;11.18;53.23
35878;BME280;21982;49.804;24.072;2023-03-15T05:46:11;95941.59;;;10.69;53.53
35878;BME280;21982;49.804;24.072;2023-03-15T05:48:36;95836.13;;;9.99;53.58
35878;BME280;21982;49.804;24.072;2023-03-15T05:51:01;96016.31;;;11.07;53.89
35878;BME280;21982;49.804;24.072;2023-03-15T05:53:27;95988.28;;;10.82;53.93
35878;BME280;21982;49.804;24.072;2023-03-15T05:55:52;96001.53;;;10.82;54.83
35878;BME280;21982;49.804;24.072;2023-03-15T05:58:19;96021.16;;;10.92;55.04
35878;BME280;21982;49.804;24.072;2023-03-15T06:00:44;96008.16;;;10.72;55.58
35878;BME280;21982;49.804;24.072;2023-03-15T06:03:10;96029.41;;;10.84;55.69
35878;BME280;21982;49.804;24.072;2023-03-15T06:05:35;95928.91;;;10.16;56.07
35878;BME280;21982;49.804;24.072;2023-03-15T06:08:01;95922.94;;;10.02;56.61
35878;BME280;21982;49.804;24.072;2023-03-15T06:10:26;96042.13;;;10.75;56.80
35878;BME280;21982;49.804;24.072;2023-03-15T06:12:52;96039.94;;;10.72;57.10
35878;BME280;21982;49.804;24.072;2023-03-15T06:15:18;96040.38;;;10.69;57.58
35878;BME280;21982;49.804;24.072;2023-03-15T06:17:44;96052.41;;;10.65;58.21
35878;BME280;21982;49.804;24.072;2023-03-15T06:20:09;95849.38;;;9.31;58.24
35878;BME280;21982;49.804;24.072;2023-03-15T06:22:36;96062.84;;;10.60;58.82
35878;BME280;21982;49.804;24.072;2023-03-15T06:25:01;96066.97;;;10.56;58.83
35878;BME280;21982;49.804;24.072;2023-03-15T06:27:27;95938.50;;;9.67;58.80
35878;BME280;21982;49.804;24.072;2023-03-15T06:29:53;95997.59;;;10.04;59.06
35878;BME280;21982;49.804;24.072;2023-03-15T06:32:19;96085.50;;;10.56;59.18
35878;BME280;21982;49.804;24.072;2023-03-15T06:34:44;96005.53;;;10.04;59.26
35878;BME280;21982;49.804;24.072;2023-03-15T06:37:09;96096.94;;;10.50;60.05
35878;BME280;21982;49.804;24.072;2023-03-15T06:39:39;96079.13;;;10.39;60.12
35878;BME280;21982;49.804;24.072;2023-03-15T06:42:05;96058.50;;;10.23;60.71
35878;BME280;21982;49.804;24.072;2023-03-15T06:44:33;96100.78;;;10.54;60.54
35878;BME280;21982;49.804;24.072;2023-03-15T06:46:58;96113.56;;;10.57;61.04
35878;BME280;21982;49.804;24.072;2023-03-15T06:49:24;96068.44;;;10.27;60.50
35878;BME280;21982;49.804;24.072;2023-03-15T06:51:49;95988.44;;;9.75;60.98
35878;BME280;21982;49.804;24.072;2023-03-15T06:54:16;96115.03;;;10.53;61.49
35878;BME280;21982;49.804;24.072;2023-03-15T06:56:41;95923.31;;;9.31;61.38
35878;BME280;21982;49.804;24.072;2023-03-15T06:59:07;96100.31;;;10.39;61.56
35878;BME280;21982;49.804;24.072;2023-03-15T07:01:33;96122.97;;;10.53;61.64
35878;BME280;21982;49.804;24.072;2023-03-15T07:03:58;96127.06;;;10.49;61.86
35878;BME280;21982;49.804;24.072;2023-03-15T07:06:25;96136.09;;;10.41;62.36
35878;BME280;21982;49.804;24.072;2023-03-15T07:08:52;96054.00;;;9.67;62.54
35878;BME280;21982;49.804;24.072;2023-03-15T07:11:18;96056.31;;;9.82;62.89
35878;BME280;21982;49.804;24.072;2023-03-15T07:13:43;95952.88;;;9.15;62.97
35878;BME280;21982;49.804;24.072;2023-03-15T07:16:08;96094.41;;;10.05;63.39
35878;BME280;21982;49.804;24.072;2023-03-15T07:18:34;96090.78;;;10.00;63.27
35878;BME280;21982;49.804;24.072;2023-03-15T07:21:02;96141.16;;;10.12;63.04
35878;BME280;21982;49.804;24.072;2023-03-15T07:23:28;96158.34;;;9.96;63.32
35878;BME280;21982;49.804;24.072;2023-03-15T07:25:54;96159.66;;;9.73;63.67
35878;BME280;21982;49.804;24.072;2023-03-15T07:28:21;96159.31;;;9.63;64.16
35878;BME280;21982;49.804;24.072;2023-03-15T07:30:57;96145.75;;;9.47;63.97
35878;BME280;21982;49.804;24.072;2023-03-15T07:33:24;96136.28;;;9.32;64.60
35878;BME280;21982;49.804;24.072;2023-03-15T07:35:50;96105.09;;;8.96;64.23
35878;BME280;21982;49.804;24.072;2023-03-15T07:38:17;96159.47;;;9.11;65.11
35878;BME280;21982;49.804;24.072;2023-03-15T07:40:43;96173.75;;;8.90;64.59
35878;BME280;21982;49.804;24.072;2023-03-15T07:43:08;95998.66;;;7.72;65.33
35878;BME280;21982;49.804;24.072;2023-03-15T07:45:34;96188.16;;;8.81;65.30
35878;BME280;21982;49.804;24.072;2023-03-15T07:47:59;96177.81;;;8.72;65.58
35878;BME280;21982;49.804;24.072;2023-03-15T07:50:25;96184.31;;;8.50;65.83
35878;BME280;21982;49.804;24.072;2023-03-15T07:52:51;96198.72;;;8.54;65.07
35878;BME280;21982;49.804;24.072;2023-03-15T07:55:16;96177.78;;;8.26;65.10
35878;BME280;21982;49.804;24.072;2023-03-15T07:57:42;96219.38;;;8.31;64.88
35878;BME280;21982;49.804;24.072;2023-03-15T08:00:09;96233.97;;;8.27;65.33
35878;BME280;21982;49.804;24.072;2023-03-15T08:02:39;96117.53;;;7.43;64.35
35878;BME280;21982;49.804;24.072;2023-03-15T08:05:06;96185.72;;;7.72;64.24
35878;BME280;21982;49.804;24.072;2023-03-15T08:07:32;96012.06;;;6.49;64.44
35878;BME280;21982;49.804;24.072;2023-03-15T08:09:57;96259.19;;;7.88;64.62
35878;BME280;21982;49.804;24.072;2023-03-15T08:12:23;96243.22;;;7.55;64.35
35878;BME280;21982;49.804;24.072;2023-03-15T08:14:50;96114.00;;;6.81;64.34
35878;BME280;21982;49.804;24.072;2023-03-15T08:17:17;96119.19;;;6.68;64.43
35878;BME280;21982;49.804;24.072;2023-03-15T08:19:43;96177.66;;;6.98;65.25
35878;BME280;21982;49.804;24.072;2023-03-15T08:22:08;96295.34;;;7.66;64.48
35878;BME280;21982;49.804;24.072;2023-03-15T08:24:34;96289.13;;;7.74;64.73
35878;BME280;21982;49.804;24.072;2023-03-15T08:27:00;96159.09;;;7.06;64.37
35878;BME280;21982;49.804;24.072;2023-03-15T08:29:26;96192.00;;;7.23;64.55
35878;BME280;21982;49.804;24.072;2023-03-15T08:31:51;96291.56;;;7.76;63.68
35878;BME280;21982;49.804;24.072;2023-03-15T08:34:16;96281.16;;;7.61;64.08
35878;BME280;21982;49.804;24.072;2023-03-15T08:36:54;96147.84;;;6.56;63.74
35878;BME280;21982;49.804;24.072;2023-03-15T08:39:19;96197.97;;;6.76;64.38
35878;BME280;21982;49.804;24.072;2023-03-15T08:41:44;96222.50;;;6.83;64.11
35878;BME280;21982;49.804;24.072;2023-03-15T08:44:12;96200.81;;;6.53;64.38
35878;BME280;21982;49.804;24.072;2023-03-15T08:46:37;96198.81;;;6.55;64.52
35878;BME280;21982;49.804;24.072;2023-03-15T08:49:03;96231.34;;;6.76;64.62
35878;BME280;21982;49.804;24.072;2023-03-15T08:51:28;96072.13;;;5.96;64.86
35878;BME280;21982;49.804;24.072;2023-03-15T08:53:55;96158.00;;;6.66;64.43
35878;BME280;21982;49.804;24.072;2023-03-15T08:56:20;96189.75;;;6.86;64.54
35878;BME280;21982;49.804;24.072;2023-03-15T08:58:46;95907.69;;;5.03;64.50
35878;BME280;21982;49.804;24.072;2023-03-15T09:01:16;96176.59;;;6.86;64.65
35878;BME280;21982;49.804;24.072;2023-03-15T09:03:41;96169.56;;;6.93;64.08
35878;BME280;21982;49.804;24.072;2023-03-15T09:06:07;96136.91;;;6.53;63.15
35878;BME280;21982;49.804;24.072;2023-03-15T09:08:33;96034.16;;;5.56;63.84
35878;BME280;21982;49.804;24.072;2023-03-15T09:10:59;96236.94;;;6.66;63.55
35878;BME280;21982;49.804;24.072;2023-03-15T09:13:28;96228.97;;;6.59;63.69
35878;BME280;21982;49.804;24.072;2023-03-15T09:15:55;96212.78;;;6.34;63.59
35878;BME280;21982;49.804;24.072;2023-03-15T09:18:21;96249.66;;;6.62;62.95
35878;BME280;21982;49.804;24.072;2023-03-15T09:20:47;96245.34;;;6.33;62.87
35878;BME280;21982;49.804;24.072;2023-03-15T09:23:13;96301.13;;;6.93;63.04
35878;BME280;21982;49.804;24.072;2023-03-15T09:25:39;96311.50;;;7.01;62.70
35878;BME280;21982;49.804;24.072;2023-03-15T09:28:05;96324.66;;;7.01;62.11
35878;BME280;21982;49.804;24.072;2023-03-15T09:30:32;96338.53;;;6.88;62.38
35878;BME280;21982;49.804;24.072;2023-03-15T09:32:58;96330.44;;;6.68;62.13
35878;BME280;21982;49.804;24.072;2023-03-15T09:35:23;96138.81;;;5.59;62.19
35878;BME280;21982;49.804;24.072;2023-03-15T09:37:49;96333.09;;;6.90;62.50
35878;BME280;21982;49.804;24.072;2023-03-15T09:40:20;96310.09;;;6.77;62.09
35878;BME280;21982;49.804;24.072;2023-03-15T09:43:03;96344.47;;;6.97;61.94
35878;BME280;21982;49.804;24.072;2023-03-15T09:51:24;96294.72;;;6.38;61.97
35878;BME280;21982;49.804;24.072;2023-03-15T09:53:58;96339.91;;;6.63;61.94
35878;BME280;21982;49.804;24.072;2023-03-15T09:56:31;96057.00;;;4.68;62.15
35878;BME280;21982;49.804;24.072;2023-03-15T09:58:59;96210.28;;;5.54;62.09
35878;BME280;21982;49.804;24.072;2023-03-15T10:01:37;96297.38;;;5.87;62.02
35878;BME280;21982;49.804;24.072;2023-03-15T10:04:30;96230.84;;;5.51;62.21
35878;BME280;21982;49.804;24.072;2023-03-15T10:06:59;96318.66;;;5.92;63.15
35878;BME280;21982;49.804;24.072;2023-03-15T10:09:30;96260.88;;;5.63;62.57
35878;BME280;21982;49.804;24.072;2023-03-15T10:12:04;96363.50;;;6.05;62.28
35878;BME280;21982;49.804;24.072;2023-03-15T10:20:06;96370.31;;;6.15;62.56
35878;BME280;21982;49.804;24.072;2023-03-15T10:22:43;96290.13;;;5.60;62.61
35878;BME280;21982;49.804;24.072;2023-03-15T10:25:24;96217.34;;;5.10;62.15
35878;BME280;21982;49.804;24.072;2023-03-15T10:28:19;96353.00;;;5.91;62.44
35878;BME280;21982;49.804;24.072;2023-03-15T10:30:50;96083.53;;;4.21;62.16
35878;BME280;21982;49.804;24.072;2023-03-15T10:35:56;96383.22;;;5.72;62.57
35878;BME280;21982;49.804;24.072;2023-03-15T10:38:24;96309.56;;;5.21;62.71
35878;BME280;21982;49.804;24.072;2023-03-15T10:40:52;96323.13;;;5.25;62.79
35878;BME280;21982;49.804;24.072;2023-03-15T10:43:21;96390.56;;;5.62;62.57
35878;BME280;21982;49.804;24.072;2023-03-15T10:46:21;96393.47;;;5.67;62.51
35878;BME280;21982;49.804;24.072;2023-03-15T10:49:13;96407.22;;;5.69;62.49
35878;BME280;21982;49.804;24.072;2023-03-15T10:51:40;96410.66;;;5.69;62.61
35878;BME280;21982;49.804;24.072;2023-03-15T10:56:49;96375.16;;;5.21;62.36
35878;BME280;21982;49.804;24.072;2023-03-15T10:59:21;96425.78;;;5.30;63.06
35878;BME280;21982;49.804;24.072;2023-03-15T11:01:50;96452.75;;;5.47;62.72
35878;BME280;21982;49.804;24.072;2023-03-15T11:04:24;96405.97;;;5.27;62.85
35878;BME280;21982;49.804;24.072;2023-03-15T11:09:24;96432.75;;;5.00;63.49
35878;BME280;21982;49.804;24.072;2023-03-15T11:12:05;96460.13;;;5.20;63.41
35878;BME280;21982;49.804;24.072;2023-03-15T11:14:45;96351.72;;;4.59;63.30
35878;BME280;21982;49.804;24.072;2023-03-15T11:17:22;96456.13;;;5.32;62.98
35878;BME280;21982;49.804;24.072;2023-03-15T11:19:57;96460.44;;;5.25;63.24
35878;BME280;21982;49.804;24.072;2023-03-15T11:22:24;96458.16;;;5.22;63.05
35878;BME280;21982;49.804;24.072;2023-03-15T11:24:51;96460.53;;;5.17;63.32
35878;BME280;21982;49.804;24.072;2023-03-15T11:27:20;96255.09;;;3.80;63.08
35878;BME280;21982;49.804;24.072;2023-03-15T11:29:56;96470.47;;;4.99;63.10
35878;BME280;21982;49.804;24.072;2023-03-15T11:32:28;96422.13;;;4.70;63.66
35878;BME280;21982;49.804;24.072;2023-03-15T11:35:13;96478.00;;;5.02;63.09
35878;BME280;21982;49.804;24.072;2023-03-15T11:37:49;96342.72;;;4.00;63.10
35878;BME280;21982;49.804;24.072;2023-03-15T11:40:37;96485.66;;;4.81;63.40
35878;BME280;21982;49.804;24.072;2023-03-15T11:43:17;96403.66;;;4.25;63.13
35878;BME280;21982;49.804;24.072;2023-03-15T11:45:53;96461.50;;;4.62;63.39
35878;BME280;21982;49.804;24.072;2023-03-15T11:51:25;96495.06;;;4.67;63.15
35878;BME280;21982;49.804;24.072;2023-03-15T11:56:52;96311.63;;;3.50;63.30
35878;BME280;21982;49.804;24.072;2023-03-15T11:59:27;96449.47;;;4.45;63.55
35878;BME280;21982;49.804;24.072;2023-03-15T12:02:32;96495.69;;;4.77;63.98
35878;BME280;21982;49.804;24.072;2023-03-15T12:04:45;96507.16;;;4.76;64.16
35878;BME280;21982;49.804;24.072;2023-03-15T12:09:48;96515.44;;;4.88;63.46
35878;BME280;21982;49.804;24.072;2023-03-15T12:15:15;96466.59;;;4.56;63.63
35878;BME280;21982;49.804;24.072;2023-03-15T12:18:03;96412.94;;;4.04;63.91
35878;BME280;21982;49.804;24.072;2023-03-15T12:21:04;96528.31;;;4.75;64.34
35878;BME280;21982;49.804;24.072;2023-03-15T12:24:06;96533.88;;;4.80;64.46
35878;BME280;21982;49.804;24.072;2023-03-15T12:26:45;96525.69;;;4.75;64.00
35878;BME280;21982;49.804;24.072;2023-03-15T12:31:54;96541.59;;;5.04;64.25
35878;BME280;21982;49.804;24.072;2023-03-15T12:34:47;96553.44;;;5.00;64.20
35878;BME280;21982;49.804;24.072;2023-03-15T12:39:46;96549.50;;;4.96;64.57
35878;BME280;21982;49.804;24.072;2023-03-15T12:53:22;96557.19;;;5.05;64.52
35878;BME280;21982;49.804;24.072;2023-03-15T12:55:51;96494.63;;;4.55;64.65
35878;BME280;21982;49.804;24.072;2023-03-15T12:58:19;96565.50;;;5.17;65.19
35878;BME280;21982;49.804;24.072;2023-03-15T13:00:46;96563.53;;;5.19;64.79
35878;BME280;21982;49.804;24.072;2023-03-15T13:03:15;96512.47;;;4.91;64.60
35878;BME280;21982;49.804;24.072;2023-03-15T13:08:30;96508.88;;;4.92;64.63
35878;BME280;21982;49.804;24.072;2023-03-15T13:11:00;96568.69;;;5.27;64.49
35878;BME280;21982;49.804;24.072;2023-03-15T13:13:34;96561.44;;;5.37;64.78
35878;BME280;21982;49.804;24.072;2023-03-15T13:16:33;96563.22;;;5.37;63.96
35878;BME280;21982;49.804;24.072;2023-03-15T13:19:06;96564.13;;;5.21;64.62
35878;BME280;21982;49.804;24.072;2023-03-15T13:24:15;96566.75;;;5.21;64.59
35878;BME280;21982;49.804;24.072;2023-03-15T13:27:00;96567.38;;;5.31;64.35
35878;BME280;21982;49.804;24.072;2023-03-15T13:29:34;96553.22;;;5.10;64.44
35878;BME280;21982;49.804;24.072;2023-03-15T13:32:21;96572.13;;;5.28;64.14
35878;BME280;21982;49.804;24.072;2023-03-15T13:34:47;96541.91;;;5.09;64.21
35878;BME280;21982;49.804;24.072;2023-03-15T13:37:19;96551.97;;;5.28;64.75
35878;BME280;21982;49.804;24.072;2023-03-15T13:42:22;96538.78;;;5.36;64.37
35878;BME280;21982;49.804;24.072;2023-03-15T13:45:05;96572.19;;;5.51;64.05
35878;BME280;21982;49.804;24.072;2023-03-15T13:47:34;96577.78;;;5.48;63.82
35878;BME280;21982;49.804;24.072;2023-03-15T13:50:02;96577.81;;;5.39;64.52
35878;BME280;21982;49.804;24.072;2023-03-15T13:52:28;96572.53;;;5.48;64.47
35878;BME280;21982;49.804;24.072;2023-03-15T13:54:54;96584.31;;;5.52;63.94
35878;BME280;21982;49.804;24.072;2023-03-15T13:57:23;96586.31;;;5.50;64.11
35878;BME280;21982;49.804;24.072;2023-03-15T13:59:59;96509.91;;;4.83;64.15
35878;BME280;21982;49.804;24.072;2023-03-15T14:02:48;96581.66;;;5.29;64.02
35878;BME280;21982;49.804;24.072;2023-03-15T14:05:28;96449.78;;;4.42;63.84
35878;BME280;21982;49.804;24.072;2023-03-15T14:08:03;96579.38;;;5.26;64.49